Time;durP1;ratioP1;P1;durP2;ratioP2;P2;SDS_P1;SDS_P2;PMS_P1;PMS_P2;Temp;Humidity;BMP_temperature;BMP_pressure;BME280_temperature;BME280_humidity;BME280_pressure;Samples;Min_cycle;Max_cycle;Signal;HPM_P1;HPM_P2
2022/08/02 00:00:22;;;;;;;2.50;2.30;;;;;;;;;;5082370;28;24410;-45
2022/08/02 00:02:48;;;;;;;2.40;2.30;;;;;;;;;;5080757;28;24433;-46
2022/08/02 00:05:13;;;;;;;2.60;2.40;;;;;;;;;;5082971;28;24890;-45
2022/08/02 00:07:38;;;;;;;2.30;2.20;;;;;;;;;;5074209;28;24517;-45
2022/08/02 00:10:04;;;;;;;2.43;2.23;;;;;;;;;;5067952;28;24481;-46
2022/08/02 00:12:29;;;;;;;2.55;2.20;;;;;;;;;;5073515;28;24421;-45
2022/08/02 00:14:54;;;;;;;2.50;2.30;;;;;;;;;;5080371;28;24419;-45
2022/08/02 00:17:19;;;;;;;2.30;2.20;;;;;;;;;;5077678;28;24769;-46
2022/08/02 00:19:45;;;;;;;2.20;2.00;;;;;;;;;;5081700;28;24425;-46
2022/08/02 00:22:10;;;;;;;2.60;2.40;;;;;;;;;;5081396;28;24815;-46
2022/08/02 00:24:35;;;;;;;2.10;2.00;;;;;;;;;;5083744;28;24421;-46
2022/08/02 00:27:02;;;;;;;2.20;2.10;;;;;;;;;;5079176;28;24983;-46
2022/08/02 00:29:28;;;;;;;2.50;2.30;;;;;;;;;;5080661;28;24449;-45
2022/08/02 00:31:53;;;;;;;2.40;2.20;;;;;;;;;;5078610;28;24547;-45
2022/08/02 00:34:18;;;;;;;2.17;2.08;;;;;;;;;;5066954;28;24957;-45
2022/08/02 00:36:43;;;;;;;2.47;2.27;;;;;;;;;;5076343;28;24418;-46
2022/08/02 00:39:08;;;;;;;2.40;2.20;;;;;;;;;;5073624;28;24433;-45
2022/08/02 00:41:43;;;;;;;2.72;2.30;;;;;;;;;;5068021;28;25014;-44
2022/08/02 00:44:08;;;;;;;2.25;2.05;;;;;;;;;;5080526;28;24467;-46
2022/08/02 00:46:33;;;;;;;2.33;2.13;;;;;;;;;;5073076;28;24492;-46
2022/08/02 00:48:58;;;;;;;2.35;2.25;;;;;;;;;;5074468;28;24417;-46
2022/08/02 00:51:23;;;;;;;2.63;2.40;;;;;;;;;;5084492;28;24984;-45
2022/08/02 00:53:49;;;;;;;2.60;2.40;;;;;;;;;;5071894;28;25014;-45
2022/08/02 00:56:14;;;;;;;2.20;2.10;;;;;;;;;;5068523;28;24418;-45
2022/08/02 00:58:39;;;;;;;2.45;2.35;;;;;;;;;;5069615;28;24427;-44
2022/08/02 01:01:05;;;;;;;2.47;2.27;;;;;;;;;;5071550;28;24564;-45
2022/08/02 01:03:30;;;;;;;2.30;2.10;;;;;;;;;;5079529;28;24457;-45
2022/08/02 01:05:55;;;;;;;2.30;2.10;;;;;;;;;;5085400;28;24848;-45
2022/08/02 01:08:20;;;;;;;2.50;2.30;;;;;;;;;;5075365;28;24448;-45
2022/08/02 01:10:45;;;;;;;2.60;2.40;;;;;;;;;;5075729;28;24422;-45
2022/08/02 01:13:10;;;;;;;2.23;2.10;;;;;;;;;;5081034;28;24484;-45
2022/08/02 01:15:39;;;;;;;2.30;2.20;;;;;;;;;;5083378;28;25017;-45
2022/08/02 01:18:08;;;;;;;2.25;2.05;;;;;;;;;;5069673;28;24419;-45
2022/08/02 01:20:47;;;;;;;2.40;2.20;;;;;;;;;;5067163;28;24430;-45
2022/08/02 01:23:38;;;;;;;2.65;2.40;;;;;;;;;;5066195;28;24405;-45
2022/08/02 01:26:22;;;;;;;2.40;2.20;;;;;;;;;;5084494;28;24470;-45
2022/08/02 01:29:06;;;;;;;2.30;2.10;;;;;;;;;;5069159;28;24521;-45
2022/08/02 01:31:34;;;;;;;2.40;2.20;;;;;;;;;;5072242;28;24429;-45
2022/08/02 01:34:21;;;;;;;2.23;2.10;;;;;;;;;;5071741;28;24475;-46
2022/08/02 01:36:50;;;;;;;1.90;1.80;;;;;;;;;;5065778;28;24450;-46
2022/08/02 01:39:18;;;;;;;2.30;2.10;;;;;;;;;;5080108;28;24422;-44
2022/08/02 01:41:43;;;;;;;1.90;1.80;;;;;;;;;;5085130;28;25033;-46
2022/08/02 01:44:10;;;;;;;2.10;1.90;;;;;;;;;;5084586;28;24430;-46
2022/08/02 01:46:38;;;;;;;1.80;1.70;;;;;;;;;;5080978;28;24438;-46
2022/08/02 01:49:05;;;;;;;2.20;2.10;;;;;;;;;;5080213;28;24430;-45
2022/08/02 01:54:16;;;;;;;2.42;2.22;;;;;;;;;;5078406;28;24464;-46
2022/08/02 01:56:42;;;;;;;2.10;2.00;;;;;;;;;;5072979;28;24492;-47
2022/08/02 01:59:09;;;;;;;2.40;2.20;;;;;;;;;;5070095;28;25019;-46
2022/08/02 02:01:35;;;;;;;2.30;2.10;;;;;;;;;;5073796;28;24989;-46
2022/08/02 02:04:01;;;;;;;2.50;2.30;;;;;;;;;;5065082;28;24481;-45
2022/08/02 02:06:26;;;;;;;2.17;1.98;;;;;;;;;;5069846;28;24522;-45
2022/08/02 02:08:51;;;;;;;2.10;2.00;;;;;;;;;;5085527;28;24418;-45
2022/08/02 02:11:17;;;;;;;2.20;2.00;;;;;;;;;;5078094;28;25205;-45
2022/08/02 02:13:42;;;;;;;2.43;2.10;;;;;;;;;;5089399;28;25215;-45
2022/08/02 02:16:08;;;;;;;2.10;2.00;;;;;;;;;;5086370;28;24448;-46
2022/08/02 02:18:37;;;;;;;1.80;1.70;;;;;;;;;;5075307;28;24441;-46
2022/08/02 02:21:02;;;;;;;2.10;2.00;;;;;;;;;;5070221;28;24508;-45
2022/08/02 02:23:27;;;;;;;2.20;2.10;;;;;;;;;;5068488;28;24460;-45
2022/08/02 02:25:53;;;;;;;2.50;2.30;;;;;;;;;;5075224;28;25199;-44
2022/08/02 02:28:18;;;;;;;2.20;2.10;;;;;;;;;;5086988;28;24468;-44
2022/08/02 02:30:46;;;;;;;2.10;2.00;;;;;;;;;;5086444;28;24423;-45
2022/08/02 02:33:12;;;;;;;2.00;1.90;;;;;;;;;;5068859;28;24837;-45
2022/08/02 02:35:38;;;;;;;2.50;2.30;;;;;;;;;;5070964;28;24988;-44
2022/08/02 02:38:06;;;;;;;2.50;2.30;;;;;;;;;;5081828;28;25077;-45
2022/08/02 02:40:32;;;;;;;2.50;2.40;;;;;;;;;;5075158;28;24514;-45
2022/08/02 02:42:59;;;;;;;3.37;3.07;;;;;;;;;;5083301;28;24564;-45
2022/08/02 02:45:24;;;;;;;3.33;3.10;;;;;;;;;;5077637;28;24406;-45
2022/08/02 02:47:51;;;;;;;3.22;3.03;;;;;;;;;;5088563;28;24460;-45
2022/08/02 02:50:17;;;;;;;2.75;2.55;;;;;;;;;;5074251;28;24421;-46
2022/08/02 02:52:42;;;;;;;2.70;2.50;;;;;;;;;;5069113;28;25180;-46
2022/08/02 02:55:09;;;;;;;2.45;2.25;;;;;;;;;;5068526;28;24410;-45
2022/08/02 02:57:35;;;;;;;2.40;2.30;;;;;;;;;;5068380;28;24482;-45
2022/08/02 03:00:00;;;;;;;2.30;2.10;;;;;;;;;;5068788;28;24399;-45
2022/08/02 03:02:26;;;;;;;2.50;2.30;;;;;;;;;;5068179;28;24409;-46
2022/08/02 03:04:52;;;;;;;2.60;2.40;;;;;;;;;;5068273;28;24436;-45
2022/08/02 03:07:17;;;;;;;2.50;2.30;;;;;;;;;;5068547;28;24480;-45
2022/08/02 03:09:42;;;;;;;2.80;2.60;;;;;;;;;;5068418;28;24397;-45
2022/08/02 03:12:08;;;;;;;2.70;2.50;;;;;;;;;;5068271;28;24405;-46
2022/08/02 03:14:33;;;;;;;2.53;2.33;;;;;;;;;;5088797;28;24405;-46
2022/08/02 03:16:59;;;;;;;2.83;2.63;;;;;;;;;;5088201;28;24402;-46
2022/08/02 03:19:24;;;;;;;2.43;2.23;;;;;;;;;;5088680;28;24421;-46
2022/08/02 03:21:49;;;;;;;2.60;2.40;;;;;;;;;;5087705;28;24448;-46
2022/08/02 03:24:15;;;;;;;2.60;2.40;;;;;;;;;;5088151;28;24406;-45
2022/08/02 03:26:40;;;;;;;3.23;2.70;;;;;;;;;;5081280;28;24403;-45
2022/08/02 03:29:06;;;;;;;2.83;2.63;;;;;;;;;;5067757;28;24472;-45
2022/08/02 03:31:31;;;;;;;2.75;2.55;;;;;;;;;;5068309;28;24765;-45
2022/08/02 03:33:57;;;;;;;2.80;2.60;;;;;;;;;;5067587;28;24494;-45
2022/08/02 03:36:24;;;;;;;2.50;2.30;;;;;;;;;;5067543;28;24395;-45
2022/08/02 03:38:50;;;;;;;2.50;2.30;;;;;;;;;;5067887;28;24438;-45
2022/08/02 03:41:16;;;;;;;3.20;3.00;;;;;;;;;;5067721;28;24929;-45
2022/08/02 03:43:43;;;;;;;3.00;2.80;;;;;;;;;;5073875;28;24528;-45
2022/08/02 03:46:08;;;;;;;3.00;2.80;;;;;;;;;;5087863;28;24394;-45
2022/08/02 03:48:34;;;;;;;2.80;2.60;;;;;;;;;;5087886;28;24520;-46
2022/08/02 03:50:59;;;;;;;2.40;2.20;;;;;;;;;;5087700;28;24468;-45
2022/08/02 03:53:24;;;;;;;2.40;2.20;;;;;;;;;;5087369;28;24384;-45
2022/08/02 03:55:50;;;;;;;2.70;2.50;;;;;;;;;;5087498;28;24409;-45
2022/08/02 03:58:16;;;;;;;2.57;2.37;;;;;;;;;;5087904;28;24487;-45
2022/08/02 04:00:41;;;;;;;3.20;2.80;;;;;;;;;;5086418;28;24402;-45
2022/08/02 04:03:06;;;;;;;3.60;2.63;;;;;;;;;;5087734;28;24848;-45
2022/08/02 04:05:31;;;;;;;2.55;2.35;;;;;;;;;;5087423;28;24413;-45
2022/08/02 04:07:56;;;;;;;2.43;2.23;;;;;;;;;;5086849;28;24518;-45
2022/08/02 04:10:21;;;;;;;2.23;2.03;;;;;;;;;;5087380;28;24468;-45
2022/08/02 04:12:47;;;;;;;3.30;2.50;;;;;;;;;;5087182;28;24485;-45
2022/08/02 04:15:13;;;;;;;2.92;2.60;;;;;;;;;;5087807;28;24991;-45
2022/08/02 04:17:58;;;;;;;4.05;2.95;;;;;;;;;;5080916;28;24415;-45
2022/08/02 04:20:28;;;;;;;3.08;2.80;;;;;;;;;;5066761;28;24394;-45
2022/08/02 04:22:53;;;;;;;3.20;2.90;;;;;;;;;;5066962;28;25065;-45
2022/08/02 04:25:19;;;;;;;3.60;2.72;;;;;;;;;;5066786;28;25010;-45
2022/08/02 04:27:45;;;;;;;3.20;3.00;;;;;;;;;;5066443;28;24454;-45
2022/08/02 04:30:10;;;;;;;3.20;2.90;;;;;;;;;;5067428;28;24940;-46
2022/08/02 04:32:36;;;;;;;3.40;2.60;;;;;;;;;;5066567;28;24422;-46
2022/08/02 04:35:01;;;;;;;2.67;2.47;;;;;;;;;;5066621;28;24706;-48
2022/08/02 04:37:26;;;;;;;2.63;2.43;;;;;;;;;;5066633;28;24745;-46
2022/08/02 04:39:51;;;;;;;3.00;2.60;;;;;;;;;;5066549;28;24490;-46
2022/08/02 04:42:20;;;;;;;3.13;2.80;;;;;;;;;;5070231;28;24516;-45
2022/08/02 04:44:45;;;;;;;3.10;2.70;;;;;;;;;;5079222;28;24462;-45
2022/08/02 04:47:11;;;;;;;2.60;2.40;;;;;;;;;;5069337;28;25059;-45
2022/08/02 04:49:36;;;;;;;2.70;2.50;;;;;;;;;;5083778;28;24434;-45
2022/08/02 04:52:01;;;;;;;3.10;2.50;;;;;;;;;;5079080;28;24457;-45
2022/08/02 04:54:26;;;;;;;2.50;2.30;;;;;;;;;;5070532;28;25166;-45
2022/08/02 04:56:51;;;;;;;4.30;3.90;;;;;;;;;;5084101;28;24382;-45
2022/08/02 04:59:16;;;;;;;3.58;3.25;;;;;;;;;;5069291;28;24785;-45
2022/08/02 05:01:42;;;;;;;2.90;2.60;;;;;;;;;;5072815;28;24417;-45
2022/08/02 05:04:07;;;;;;;3.27;2.97;;;;;;;;;;5063519;28;24443;-45
2022/08/02 05:06:32;;;;;;;2.80;2.60;;;;;;;;;;5075129;28;24429;-46
2022/08/02 05:08:57;;;;;;;2.70;2.50;;;;;;;;;;5081313;28;24823;-46
2022/08/02 05:11:23;;;;;;;2.50;2.30;;;;;;;;;;5074979;28;24403;-45
2022/08/02 05:13:48;;;;;;;2.53;2.33;;;;;;;;;;5074078;28;25001;-45
2022/08/02 05:16:13;;;;;;;3.05;2.85;;;;;;;;;;5072705;28;24422;-45
2022/08/02 05:18:39;;;;;;;2.80;2.60;;;;;;;;;;5082799;28;24456;-45
2022/08/02 05:21:04;;;;;;;2.75;2.55;;;;;;;;;;5082161;28;25186;-45
2022/08/02 05:23:29;;;;;;;2.90;2.70;;;;;;;;;;5071630;28;24965;-45
2022/08/02 05:25:54;;;;;;;2.92;2.70;;;;;;;;;;5070472;28;24539;-46
2022/08/02 05:28:19;;;;;;;3.03;2.80;;;;;;;;;;5076678;28;24460;-45
2022/08/02 05:30:44;;;;;;;2.95;2.65;;;;;;;;;;5069477;28;24994;-44
2022/08/02 05:33:09;;;;;;;4.18;3.05;;;;;;;;;;5078134;28;24442;-45
2022/08/02 05:35:35;;;;;;;4.67;3.90;;;;;;;;;;5086180;28;24394;-45
2022/08/02 05:38:00;;;;;;;3.30;3.00;;;;;;;;;;5085725;28;24398;-45
2022/08/02 05:40:25;;;;;;;3.50;3.20;;;;;;;;;;5086449;28;24405;-45
2022/08/02 05:42:50;;;;;;;3.00;2.80;;;;;;;;;;5086170;28;24386;-46
2022/08/02 05:45:16;;;;;;;3.00;2.70;;;;;;;;;;5086241;28;24447;-46
2022/08/02 05:47:41;;;;;;;3.10;2.72;;;;;;;;;;5088834;28;24475;-46
2022/08/02 05:50:07;;;;;;;3.00;2.80;;;;;;;;;;5089625;28;24485;-45
2022/08/02 05:52:48;;;;;;;3.20;2.90;;;;;;;;;;5089950;28;24409;-45
2022/08/02 05:55:19;;;;;;;3.20;2.90;;;;;;;;;;5089612;28;24402;-45
2022/08/02 05:57:53;;;;;;;3.40;3.10;;;;;;;;;;5088983;28;24418;-45
2022/08/02 06:00:19;;;;;;;3.70;3.30;;;;;;;;;;5089548;28;24393;-49
2022/08/02 06:03:01;;;;;;;3.00;2.80;;;;;;;;;;5089638;28;24999;-44
2022/08/02 06:05:27;;;;;;;3.17;2.88;;;;;;;;;;5089931;28;24492;-45
2022/08/02 06:07:54;;;;;;;3.40;3.10;;;;;;;;;;5087612;28;24434;-45
2022/08/02 06:10:20;;;;;;;3.00;2.80;;;;;;;;;;5069469;28;24422;-44
2022/08/02 06:12:48;;;;;;;2.40;2.20;;;;;;;;;;5086002;28;24558;-44
2022/08/02 06:15:14;;;;;;;3.40;3.10;;;;;;;;;;5086432;28;25132;-45
2022/08/02 06:17:39;;;;;;;3.00;2.80;;;;;;;;;;5070668;28;24426;-46
2022/08/02 06:20:05;;;;;;;3.30;3.00;;;;;;;;;;5069267;28;24992;-44
2022/08/02 06:22:32;;;;;;;4.38;3.83;;;;;;;;;;5076601;28;25028;-44
2022/08/02 06:24:58;;;;;;;3.40;3.10;;;;;;;;;;5077880;28;24414;-45
2022/08/02 06:27:26;;;;;;;2.90;2.70;;;;;;;;;;5077992;28;24824;-45
2022/08/02 06:29:52;;;;;;;2.97;2.70;;;;;;;;;;5088127;28;24784;-45
2022/08/02 06:32:18;;;;;;;3.20;2.97;;;;;;;;;;5071248;28;24422;-45
2022/08/02 06:34:43;;;;;;;2.90;2.70;;;;;;;;;;5075230;28;24951;-45
2022/08/02 06:37:17;;;;;;;3.60;3.40;;;;;;;;;;5074580;28;24418;-45
2022/08/02 06:39:43;;;;;;;3.28;2.97;;;;;;;;;;5070253;28;25029;-46
2022/08/02 06:42:11;;;;;;;5.50;3.70;;;;;;;;;;5078360;28;24549;-46
2022/08/02 06:44:37;;;;;;;3.50;3.20;;;;;;;;;;5071079;28;24430;-45
2022/08/02 06:47:02;;;;;;;3.30;2.88;;;;;;;;;;5073245;28;24450;-45
2022/08/02 06:49:28;;;;;;;2.70;2.50;;;;;;;;;;5082586;28;24429;-45
2022/08/02 06:51:53;;;;;;;3.15;2.85;;;;;;;;;;5072315;28;24513;-45
2022/08/02 06:54:20;;;;;;;3.27;3.07;;;;;;;;;;5066881;28;24397;-45
2022/08/02 06:56:45;;;;;;;2.92;2.72;;;;;;;;;;5068073;28;24476;-45
2022/08/02 06:59:10;;;;;;;3.10;2.90;;;;;;;;;;5066343;28;24952;-46
2022/08/02 07:01:36;;;;;;;3.83;3.53;;;;;;;;;;5068535;28;24488;-45
2022/08/02 07:04:01;;;;;;;2.90;2.70;;;;;;;;;;5068165;28;24780;-46
2022/08/02 07:06:26;;;;;;;2.83;2.63;;;;;;;;;;5067349;28;24399;-45
2022/08/02 07:08:51;;;;;;;3.40;3.20;;;;;;;;;;5085183;28;24531;-44
2022/08/02 07:11:18;;;;;;;3.75;3.45;;;;;;;;;;5088036;28;24397;-45
2022/08/02 07:13:43;;;;;;;3.50;3.20;;;;;;;;;;5088456;28;24456;-45
2022/08/02 07:16:08;;;;;;;3.50;3.30;;;;;;;;;;5088413;28;24390;-46
2022/08/02 07:18:33;;;;;;;3.03;2.83;;;;;;;;;;5088424;28;24444;-46
2022/08/02 07:20:58;;;;;;;3.60;2.90;;;;;;;;;;5088210;28;24444;-44
2022/08/02 07:23:23;;;;;;;2.70;2.50;;;;;;;;;;5087772;28;24397;-45
2022/08/02 07:25:48;;;;;;;3.08;2.78;;;;;;;;;;5088077;28;24402;-44
2022/08/02 07:28:14;;;;;;;3.40;3.10;;;;;;;;;;5087525;28;24426;-46
2022/08/02 07:30:40;;;;;;;3.15;2.85;;;;;;;;;;5088212;28;24422;-45
2022/08/02 07:33:06;;;;;;;3.60;3.40;;;;;;;;;;5088039;28;24935;-45
2022/08/02 07:35:31;;;;;;;3.47;3.17;;;;;;;;;;5087616;28;24989;-45
2022/08/02 07:37:56;;;;;;;3.63;3.27;;;;;;;;;;5087647;28;24405;-45
2022/08/02 07:40:22;;;;;;;2.90;2.70;;;;;;;;;;5087301;28;25081;-44
2022/08/02 07:42:51;;;;;;;4.30;3.00;;;;;;;;;;5087735;28;24459;-45
2022/08/02 07:45:17;;;;;;;3.25;2.97;;;;;;;;;;5087972;28;24405;-44
2022/08/02 07:47:43;;;;;;;2.93;2.63;;;;;;;;;;5086360;28;24793;-45
2022/08/02 07:50:10;;;;;;;2.90;2.70;;;;;;;;;;5087733;28;24485;-45
2022/08/02 07:52:35;;;;;;;3.90;3.60;;;;;;;;;;5087815;28;24383;-45
2022/08/02 07:55:00;;;;;;;3.70;3.40;;;;;;;;;;5087062;28;24401;-44
2022/08/02 07:57:26;;;;;;;4.60;3.23;;;;;;;;;;5087670;28;24458;-45
2022/08/02 07:59:51;;;;;;;3.80;3.50;;;;;;;;;;5087275;28;24761;-45
2022/08/02 08:02:17;;;;;;;3.60;3.30;;;;;;;;;;5087269;28;25026;-45
2022/08/02 08:04:42;;;;;;;4.00;3.40;;;;;;;;;;5087525;28;24402;-45
2022/08/02 08:07:10;;;;;;;3.50;3.20;;;;;;;;;;5086938;28;24405;-46
2022/08/02 08:09:40;;;;;;;3.67;3.38;;;;;;;;;;5085367;28;25082;-46
2022/08/02 08:12:06;;;;;;;2.97;2.78;;;;;;;;;;5087364;28;24409;-46
2022/08/02 08:14:31;;;;;;;2.87;2.67;;;;;;;;;;5087582;28;24410;-46
2022/08/02 08:16:56;;;;;;;4.07;2.90;;;;;;;;;;5086674;28;24399;-44
2022/08/02 08:19:21;;;;;;;3.10;2.80;;;;;;;;;;5087585;28;24493;-45
2022/08/02 08:21:47;;;;;;;3.55;3.22;;;;;;;;;;5086791;28;24401;-45
2022/08/02 08:24:12;;;;;;;4.13;3.33;;;;;;;;;;5086704;28;24952;-45
2022/08/02 08:26:38;;;;;;;2.77;2.57;;;;;;;;;;5086924;28;24401;-46
2022/08/02 08:29:05;;;;;;;3.30;2.90;;;;;;;;;;5086589;28;25250;-46
2022/08/02 08:31:30;;;;;;;5.07;3.58;;;;;;;;;;5087354;28;24378;-45
2022/08/02 08:33:55;;;;;;;2.97;2.77;;;;;;;;;;5086603;28;24460;-45
2022/08/02 08:36:20;;;;;;;3.30;3.00;;;;;;;;;;5087040;28;24440;-45
2022/08/02 08:38:45;;;;;;;3.58;3.28;;;;;;;;;;5086497;28;24393;-44
2022/08/02 08:41:11;;;;;;;2.70;2.50;;;;;;;;;;5086608;28;24426;-44
2022/08/02 08:43:36;;;;;;;2.80;2.60;;;;;;;;;;5087068;28;24523;-46
2022/08/02 08:46:01;;;;;;;2.65;2.45;;;;;;;;;;5086343;28;24942;-45
2022/08/02 08:48:27;;;;;;;2.77;2.50;;;;;;;;;;5086662;28;24464;-45
2022/08/02 08:50:55;;;;;;;3.50;3.20;;;;;;;;;;5086413;28;25004;-45
2022/08/02 08:53:22;;;;;;;4.88;4.53;;;;;;;;;;5086008;28;24944;-45
2022/08/02 08:55:48;;;;;;;4.20;3.90;;;;;;;;;;5086277;28;25007;-45
2022/08/02 08:58:13;;;;;;;3.50;3.20;;;;;;;;;;5086615;28;24406;-45
2022/08/02 09:00:40;;;;;;;3.10;2.90;;;;;;;;;;5086579;28;24507;-45
2022/08/02 09:03:07;;;;;;;3.80;3.40;;;;;;;;;;5086432;28;24412;-45
2022/08/02 09:05:36;;;;;;;3.80;3.60;;;;;;;;;;5086662;28;24443;-45
2022/08/02 09:08:01;;;;;;;3.40;3.20;;;;;;;;;;5085728;28;24441;-45
2022/08/02 09:10:39;;;;;;;4.10;3.80;;;;;;;;;;5086531;28;24386;-45
2022/08/02 09:13:05;;;;;;;4.20;3.80;;;;;;;;;;5085845;28;24749;-45
2022/08/02 09:15:30;;;;;;;3.90;3.60;;;;;;;;;;5086919;28;24743;-45
2022/08/02 09:17:55;;;;;;;4.60;4.20;;;;;;;;;;5085313;28;24544;-46
2022/08/02 09:20:20;;;;;;;3.70;3.40;;;;;;;;;;5087289;28;24401;-46
2022/08/02 09:23:03;;;;;;;3.40;3.10;;;;;;;;;;5090251;28;24394;-46
2022/08/02 09:25:28;;;;;;;3.60;3.40;;;;;;;;;;5090276;28;24405;-44
2022/08/02 09:27:54;;;;;;;3.20;3.00;;;;;;;;;;5090498;28;24430;-45
2022/08/02 09:30:19;;;;;;;4.20;3.83;;;;;;;;;;5090194;28;24951;-46
2022/08/02 09:32:45;;;;;;;4.17;3.87;;;;;;;;;;5090083;28;24497;-47
2022/08/02 09:35:11;;;;;;;4.25;3.95;;;;;;;;;;5090225;28;24401;-46
2022/08/02 09:37:36;;;;;;;4.00;3.60;;;;;;;;;;5090160;28;24399;-46
2022/08/02 09:40:03;;;;;;;3.53;3.23;;;;;;;;;;5090003;28;24405;-45
2022/08/02 09:42:29;;;;;;;3.55;3.25;;;;;;;;;;5090182;28;24439;-45
2022/08/02 09:44:55;;;;;;;3.70;3.50;;;;;;;;;;5090251;28;24444;-47
2022/08/02 09:47:20;;;;;;;3.40;3.20;;;;;;;;;;5089882;28;24407;-45
2022/08/02 09:49:46;;;;;;;3.83;3.50;;;;;;;;;;5088923;28;24972;-45
2022/08/02 09:52:11;;;;;;;3.40;3.20;;;;;;;;;;5090353;28;24390;-45
2022/08/02 09:54:37;;;;;;;3.27;3.07;;;;;;;;;;5089534;28;24417;-45
2022/08/02 09:57:03;;;;;;;3.40;3.20;;;;;;;;;;5089890;28;24993;-44
2022/08/02 09:59:28;;;;;;;3.58;3.28;;;;;;;;;;5089843;28;24394;-44
2022/08/02 10:01:54;;;;;;;3.37;3.17;;;;;;;;;;5089294;28;24414;-45
2022/08/02 10:04:20;;;;;;;3.80;3.50;;;;;;;;;;5090004;28;24699;-44
2022/08/02 10:06:47;;;;;;;3.40;3.10;;;;;;;;;;5089623;28;24482;-44
2022/08/02 10:09:12;;;;;;;3.13;2.92;;;;;;;;;;5089305;28;24418;-44
2022/08/02 10:11:37;;;;;;;3.10;2.90;;;;;;;;;;5090022;28;24997;-44
2022/08/02 10:14:04;;;;;;;3.38;3.00;;;;;;;;;;5089335;28;24402;-44
2022/08/02 10:16:31;;;;;;;4.68;3.10;;;;;;;;;;5089188;28;24409;-44
2022/08/02 10:18:59;;;;;;;3.45;3.25;;;;;;;;;;5089252;28;24753;-44
2022/08/02 10:21:47;;;;;;;3.20;3.00;;;;;;;;;;5089534;28;24776;-48
2022/08/02 10:24:32;;;;;;;3.10;2.83;;;;;;;;;;5085731;28;24544;-45
2022/08/02 10:26:58;;;;;;;3.30;3.10;;;;;;;;;;5088989;28;24437;-45
2022/08/02 10:29:26;;;;;;;3.10;2.90;;;;;;;;;;5088741;28;24495;-45
2022/08/02 10:31:54;;;;;;;3.72;3.42;;;;;;;;;;5088290;28;24501;-45
2022/08/02 10:34:21;;;;;;;3.10;2.90;;;;;;;;;;5089338;28;24386;-45
2022/08/02 10:36:47;;;;;;;3.50;3.20;;;;;;;;;;5088752;28;24809;-45
2022/08/02 10:39:12;;;;;;;3.38;3.17;;;;;;;;;;5088820;28;24444;-45
2022/08/02 10:41:40;;;;;;;3.00;2.80;;;;;;;;;;5088835;28;24808;-46
2022/08/02 10:44:06;;;;;;;3.05;2.85;;;;;;;;;;5088322;28;24390;-46
2022/08/02 10:46:32;;;;;;;3.30;3.00;;;;;;;;;;5088902;28;24525;-45
2022/08/02 10:49:00;;;;;;;2.90;2.70;;;;;;;;;;5088890;28;24398;-45
2022/08/02 10:51:45;;;;;;;3.00;2.80;;;;;;;;;;5088772;28;24486;-46
2022/08/02 10:54:16;;;;;;;3.20;3.00;;;;;;;;;;5088488;28;24936;-46
2022/08/02 10:56:44;;;;;;;3.13;2.93;;;;;;;;;;5088858;28;24963;-45
2022/08/02 10:59:23;;;;;;;3.70;3.40;;;;;;;;;;5087641;28;24502;-45
2022/08/02 11:01:48;;;;;;;3.10;2.90;;;;;;;;;;5088672;28;24981;-45
2022/08/02 11:04:14;;;;;;;3.35;3.15;;;;;;;;;;5088089;28;24398;-45
2022/08/02 11:06:58;;;;;;;3.43;3.23;;;;;;;;;;5088812;28;25221;-45
2022/08/02 11:09:31;;;;;;;3.20;3.00;;;;;;;;;;5087960;28;24449;-46
2022/08/02 11:12:04;;;;;;;3.60;3.30;;;;;;;;;;5088107;28;24729;-46
2022/08/02 11:14:29;;;;;;;3.40;3.10;;;;;;;;;;5088186;28;25255;-45
2022/08/02 11:16:55;;;;;;;3.73;3.00;;;;;;;;;;5088164;28;24398;-47
2022/08/02 11:19:20;;;;;;;3.97;2.75;;;;;;;;;;5088180;28;24397;-45
2022/08/02 11:22:01;;;;;;;3.13;2.93;;;;;;;;;;5088318;28;25220;-46
2022/08/02 11:24:30;;;;;;;3.20;3.00;;;;;;;;;;5087847;28;24428;-46
2022/08/02 11:26:57;;;;;;;2.95;2.80;;;;;;;;;;5087727;28;24421;-46
2022/08/02 11:29:30;;;;;;;3.67;3.20;;;;;;;;;;5087714;28;24800;-45
2022/08/02 11:31:56;;;;;;;3.47;3.20;;;;;;;;;;5088056;28;24386;-45
2022/08/02 11:34:23;;;;;;;4.93;2.80;;;;;;;;;;5088165;28;24991;-46
2022/08/02 11:36:50;;;;;;;3.08;2.88;;;;;;;;;;5087893;28;24440;-46
2022/08/02 11:39:16;;;;;;;3.00;2.80;;;;;;;;;;5087855;28;24451;-45
2022/08/02 11:41:42;;;;;;;2.55;2.40;;;;;;;;;;5087972;28;24394;-45
2022/08/02 11:44:07;;;;;;;2.80;2.70;;;;;;;;;;5087697;28;24400;-46
2022/08/02 11:46:32;;;;;;;2.40;2.30;;;;;;;;;;5087995;28;25047;-46
2022/08/02 11:49:09;;;;;;;3.20;2.90;;;;;;;;;;5087612;28;24936;-46
2022/08/02 11:51:34;;;;;;;3.00;2.80;;;;;;;;;;5087774;28;24441;-46
2022/08/02 11:53:59;;;;;;;2.60;2.40;;;;;;;;;;5087580;28;24438;-46
2022/08/02 11:56:26;;;;;;;2.90;2.70;;;;;;;;;;5087679;28;24493;-46
2022/08/02 11:59:02;;;;;;;2.80;2.60;;;;;;;;;;5086909;28;24440;-46
2022/08/02 12:01:28;;;;;;;2.75;2.55;;;;;;;;;;5087280;28;24478;-46
2022/08/02 12:03:57;;;;;;;2.60;2.50;;;;;;;;;;5087258;28;24455;-46
2022/08/02 12:06:23;;;;;;;2.90;2.80;;;;;;;;;;5087879;28;24397;-45
2022/08/02 12:08:48;;;;;;;2.90;2.60;;;;;;;;;;5086963;28;24439;-45
2022/08/02 12:11:17;;;;;;;2.60;2.40;;;;;;;;;;5087567;28;25352;-45
2022/08/02 12:13:43;;;;;;;2.55;2.35;;;;;;;;;;5087395;28;24420;-45
2022/08/02 12:21:40;;;;;;;3.65;2.50;;;;;;;;;;5086948;28;24555;-45
2022/08/02 12:24:05;;;;;;;2.70;2.50;;;;;;;;;;5086683;28;24915;-46
2022/08/02 12:26:39;;;;;;;2.60;2.40;;;;;;;;;;5087266;28;24421;-44
2022/08/02 12:29:04;;;;;;;2.80;2.60;;;;;;;;;;5086848;28;24756;-45
2022/08/02 12:31:44;;;;;;;2.60;2.50;;;;;;;;;;5086995;28;24564;-45
2022/08/02 12:34:19;;;;;;;2.30;2.20;;;;;;;;;;5086612;28;24390;-44
2022/08/02 12:37:05;;;;;;;4.28;2.40;;;;;;;;;;5086898;28;24397;-46
2022/08/02 12:39:35;;;;;;;2.55;2.38;;;;;;;;;;5083913;28;24425;-46
2022/08/02 12:42:00;;;;;;;2.40;2.30;;;;;;;;;;5083907;28;25023;-46
2022/08/02 12:44:25;;;;;;;2.63;2.43;;;;;;;;;;5085435;28;24430;-45
2022/08/02 12:47:01;;;;;;;2.50;2.40;;;;;;;;;;5085033;28;24457;-45
2022/08/02 12:49:26;;;;;;;2.85;2.65;;;;;;;;;;5085165;28;24413;-45
2022/08/02 12:51:52;;;;;;;2.13;2.03;;;;;;;;;;5085224;28;25003;-46
2022/08/02 12:54:19;;;;;;;2.53;2.33;;;;;;;;;;5084597;28;24387;-45
2022/08/02 12:56:45;;;;;;;2.13;2.03;;;;;;;;;;5084640;28;24737;-46
2022/08/02 12:59:10;;;;;;;2.20;2.10;;;;;;;;;;5085489;28;24955;-46
2022/08/02 13:01:35;;;;;;;2.10;2.00;;;;;;;;;;5084074;28;24451;-45
2022/08/02 13:04:00;;;;;;;2.58;2.38;;;;;;;;;;5087008;28;24402;-45
2022/08/02 13:06:26;;;;;;;2.70;2.50;;;;;;;;;;5086518;28;24402;-45
2022/08/02 13:08:53;;;;;;;3.70;2.30;;;;;;;;;;5084846;28;24852;-46
2022/08/02 13:11:18;;;;;;;2.55;2.35;;;;;;;;;;5086504;28;24502;-45
2022/08/02 13:13:43;;;;;;;2.60;2.40;;;;;;;;;;5086308;28;24985;-45
2022/08/02 13:16:09;;;;;;;2.40;2.30;;;;;;;;;;5086733;28;24398;-46
2022/08/02 13:18:34;;;;;;;2.40;2.30;;;;;;;;;;5086328;28;24391;-45
2022/08/02 13:20:59;;;;;;;2.30;2.20;;;;;;;;;;5083870;28;24405;-44
2022/08/02 13:23:24;;;;;;;2.20;2.10;;;;;;;;;;5086803;28;25045;-44
2022/08/02 13:25:50;;;;;;;2.30;2.00;;;;;;;;;;5085826;28;24939;-44
2022/08/02 13:28:15;;;;;;;3.17;2.87;;;;;;;;;;5086076;28;24418;-43
2022/08/02 13:30:40;;;;;;;2.60;2.40;;;;;;;;;;5085940;28;24519;-44
2022/08/02 13:33:05;;;;;;;2.58;2.38;;;;;;;;;;5086115;28;24772;-46
2022/08/02 13:35:30;;;;;;;2.10;2.00;;;;;;;;;;5086472;28;24471;-45
2022/08/02 13:37:56;;;;;;;2.43;2.33;;;;;;;;;;5085756;28;24387;-45
2022/08/02 13:40:21;;;;;;;2.35;2.25;;;;;;;;;;5086522;28;24477;-45
2022/08/02 13:42:47;;;;;;;2.33;2.20;;;;;;;;;;5086019;28;24394;-45
2022/08/02 13:45:12;;;;;;;2.13;1.93;;;;;;;;;;5085767;28;24988;-46
2022/08/02 13:47:41;;;;;;;2.30;2.20;;;;;;;;;;5086228;28;24420;-45
2022/08/02 13:50:06;;;;;;;2.67;2.47;;;;;;;;;;5083496;28;24414;-48
2022/08/02 13:52:31;;;;;;;2.10;2.00;;;;;;;;;;5086060;28;24393;-45
2022/08/02 13:54:56;;;;;;;2.30;2.20;;;;;;;;;;5086262;28;24952;-45
2022/08/02 13:57:22;;;;;;;2.50;2.40;;;;;;;;;;5085865;28;24443;-47
2022/08/02 13:59:47;;;;;;;2.50;2.30;;;;;;;;;;5086123;28;24416;-46
2022/08/02 14:02:12;;;;;;;2.57;2.37;;;;;;;;;;5085682;28;25001;-46
2022/08/02 14:04:37;;;;;;;2.50;2.30;;;;;;;;;;5085925;28;24390;-45
2022/08/02 14:07:03;;;;;;;2.13;2.03;;;;;;;;;;5086241;28;24418;-45
2022/08/02 14:09:31;;;;;;;2.60;2.40;;;;;;;;;;5089512;28;24422;-47
2022/08/02 14:11:56;;;;;;;2.30;2.20;;;;;;;;;;5087188;28;24394;-45
2022/08/02 14:14:21;;;;;;;4.20;2.65;;;;;;;;;;5089633;28;24826;-45
2022/08/02 14:16:46;;;;;;;2.50;2.40;;;;;;;;;;5089435;28;24398;-46
2022/08/02 14:19:12;;;;;;;2.60;2.40;;;;;;;;;;5089896;28;24414;-46
2022/08/02 14:21:37;;;;;;;2.90;2.70;;;;;;;;;;5088824;28;24393;-45
2022/08/02 14:24:02;;;;;;;2.60;2.50;;;;;;;;;;5088930;28;24444;-46
2022/08/02 14:26:27;;;;;;;3.60;3.37;;;;;;;;;;5089620;28;24382;-46
2022/08/02 14:28:52;;;;;;;3.33;3.03;;;;;;;;;;5088673;28;24849;-45
2022/08/02 14:31:18;;;;;;;3.20;3.00;;;;;;;;;;5088706;28;24401;-46
2022/08/02 14:33:43;;;;;;;3.27;2.90;;;;;;;;;;5089070;28;24394;-46
2022/08/02 14:36:08;;;;;;;2.50;2.30;;;;;;;;;;5088973;28;24398;-46
2022/08/02 14:38:35;;;;;;;2.70;2.50;;;;;;;;;;5089306;28;24378;-45
2022/08/02 14:41:00;;;;;;;2.40;2.30;;;;;;;;;;5088555;28;24913;-44
2022/08/02 14:46:09;;;;;;;2.53;2.37;;;;;;;;;;5088496;28;24926;-45
2022/08/02 14:48:34;;;;;;;2.30;2.20;;;;;;;;;;5089014;28;24406;-45
2022/08/02 14:50:59;;;;;;;2.40;2.30;;;;;;;;;;5088957;28;24987;-45